Time;durP1;ratioP1;P1;durP2;ratioP2;P2;SDS_P1;SDS_P2;PMS_P1;PMS_P2;Temp;Humidity;BMP_temperature;BMP_pressure;BME280_temperature;BME280_humidity;BME280_pressure;Samples;Min_cycle;Max_cycle;Signal;HPM_P1;HPM_P2
2023/04/16 00:01:27;;;;;;;7.88;3.10;;;9.60;99.90;;;;;;4958367;29;20106;-70
2023/04/16 00:03:54;;;;;;;13.82;4.75;;;9.50;99.90;;;;;;4958504;28;20015;-70
2023/04/16 00:06:20;;;;;;;5.60;3.53;;;9.50;99.90;;;;;;4958752;28;20103;-69
2023/04/16 00:08:45;;;;;;;3.17;2.88;;;9.40;99.90;;;;;;4958574;28;20027;-70
2023/04/16 00:11:11;;;;;;;8.45;3.53;;;9.40;99.90;;;;;;4958549;28;20480;-70
2023/04/16 00:13:37;;;;;;;6.75;3.50;;;9.40;99.90;;;;;;4958621;29;20074;-70
2023/04/16 00:16:03;;;;;;;5.90;3.28;;;9.40;99.90;;;;;;4957010;28;20028;-70
2023/04/16 00:18:29;;;;;;;4.55;3.05;;;9.30;99.90;;;;;;4957018;28;20091;-70
2023/04/16 00:20:54;;;;;;;5.70;3.10;;;9.30;99.90;;;;;;4958254;28;20125;-70
2023/04/16 00:23:20;;;;;;;6.80;3.10;;;9.20;99.90;;;;;;4958473;29;20015;-69
2023/04/16 00:25:46;;;;;;;7.53;3.67;;;9.20;99.90;;;;;;4958510;28;20030;-70
2023/04/16 00:28:12;;;;;;;4.28;2.95;;;9.20;99.90;;;;;;4958287;28;20500;-70
2023/04/16 00:30:37;;;;;;;6.38;3.88;;;9.10;99.90;;;;;;4958514;28;20082;-70
2023/04/16 00:33:03;;;;;;;6.40;3.35;;;9.00;99.90;;;;;;4956886;28;20022;-70
2023/04/16 00:35:29;;;;;;;5.57;3.15;;;9.00;99.90;;;;;;4958728;29;20035;-70
2023/04/16 00:37:55;;;;;;;4.43;3.13;;;8.90;99.90;;;;;;4957095;28;20016;-70
2023/04/16 00:40:20;;;;;;;5.20;3.60;;;8.90;99.90;;;;;;4958457;28;20055;-70
2023/04/16 00:42:46;;;;;;;7.68;3.42;;;8.90;99.90;;;;;;4961742;28;20031;-69
2023/04/16 00:45:12;;;;;;;12.50;3.95;;;8.80;99.90;;;;;;4961921;29;20376;-69
2023/04/16 00:47:38;;;;;;;6.85;3.90;;;8.70;99.90;;;;;;4961595;28;20496;-69
2023/04/16 00:50:04;;;;;;;11.80;3.80;;;8.70;99.90;;;;;;4961803;28;20060;-70
2023/04/16 00:52:31;;;;;;;8.75;3.53;;;8.70;99.90;;;;;;4961515;28;20400;-70
2023/04/16 00:54:58;;;;;;;7.70;3.45;;;8.60;99.90;;;;;;4961814;29;20039;-70
2023/04/16 00:57:24;;;;;;;11.10;4.43;;;8.60;99.90;;;;;;4961551;28;20023;-70
2023/04/16 00:59:50;;;;;;;12.30;3.72;;;8.50;99.90;;;;;;4961547;29;20058;-70
2023/04/16 01:02:16;;;;;;;3.30;2.90;;;8.50;99.90;;;;;;4961185;28;20020;-70
2023/04/16 01:04:42;;;;;;;10.23;3.20;;;8.50;99.90;;;;;;4961334;28;20492;-70
2023/04/16 01:07:08;;;;;;;9.50;4.05;;;8.50;99.90;;;;;;4961397;28;20388;-70
2023/04/16 01:09:33;;;;;;;10.75;3.60;;;8.50;99.90;;;;;;4961350;28;20023;-70
2023/04/16 01:11:59;;;;;;;6.38;3.08;;;8.50;99.90;;;;;;4961358;28;20023;-69
2023/04/16 01:14:24;;;;;;;9.60;3.58;;;8.40;99.90;;;;;;4961306;29;20027;-69
2023/04/16 01:16:50;;;;;;;8.35;4.00;;;8.40;99.90;;;;;;4960957;28;20090;-70
2023/04/16 01:19:16;;;;;;;6.93;3.38;;;8.40;99.90;;;;;;4961107;29;20031;-70
2023/04/16 01:21:41;;;;;;;16.60;4.10;;;8.30;99.90;;;;;;4961026;28;20035;-69
2023/04/16 01:24:07;;;;;;;9.70;3.85;;;8.30;99.90;;;;;;4961214;29;20030;-70
2023/04/16 01:26:33;;;;;;;6.68;4.10;;;8.30;99.90;;;;;;4961067;28;20392;-70
2023/04/16 01:28:59;;;;;;;5.38;3.75;;;8.20;99.90;;;;;;4961056;29;20028;-70
2023/04/16 01:31:25;;;;;;;6.13;3.20;;;8.10;99.90;;;;;;4960855;28;20027;-70
2023/04/16 01:33:50;;;;;;;10.38;4.22;;;8.10;99.90;;;;;;4959717;29;20090;-70
2023/04/16 01:36:16;;;;;;;9.10;3.05;;;8.10;99.90;;;;;;4960935;28;20178;-70
2023/04/16 01:38:42;;;;;;;9.63;3.13;;;8.10;99.90;;;;;;4959736;28;20031;-70
2023/04/16 01:41:07;;;;;;;10.20;4.35;;;8.10;99.90;;;;;;4960741;28;20503;-70
2023/04/16 01:43:33;;;;;;;9.50;3.70;;;8.00;99.90;;;;;;4960809;29;20098;-70
2023/04/16 01:46:10;;;;;;;9.00;4.38;;;8.00;99.90;;;;;;4960474;28;20020;-69
2023/04/16 01:48:36;;;;;;;5.00;3.35;;;7.90;99.90;;;;;;4953041;29;20027;-70
2023/04/16 01:51:01;;;;;;;9.10;4.30;;;7.90;99.90;;;;;;4960418;28;20030;-70
2023/04/16 01:53:27;;;;;;;10.88;3.72;;;7.90;99.90;;;;;;4958737;28;20031;-70
2023/04/16 01:55:53;;;;;;;9.13;3.60;;;7.90;99.90;;;;;;4959993;28;20027;-70
2023/04/16 01:58:18;;;;;;;6.68;3.83;;;7.90;99.90;;;;;;4959324;28;20058;-70
2023/04/16 02:00:44;;;;;;;10.35;3.78;;;7.80;99.90;;;;;;4959052;28;20019;-70
2023/04/16 02:03:09;;;;;;;5.57;3.47;;;7.80;99.90;;;;;;4960451;28;20035;-70
2023/04/16 02:05:35;;;;;;;9.23;3.90;;;7.80;99.90;;;;;;4960164;28;20102;-70
2023/04/16 02:08:01;;;;;;;10.95;4.00;;;7.80;99.90;;;;;;4960536;28;20150;-70
2023/04/16 02:10:26;;;;;;;6.30;3.53;;;7.70;99.90;;;;;;4960149;28;20011;-70
2023/04/16 02:12:52;;;;;;;6.40;4.13;;;7.60;99.90;;;;;;4960491;28;20369;-70
2023/04/16 02:15:18;;;;;;;8.52;3.88;;;7.60;99.90;;;;;;4959835;28;20034;-70
2023/04/16 02:17:45;;;;;;;5.20;3.35;;;7.60;99.90;;;;;;4958986;28;20160;-70
2023/04/16 02:20:11;;;;;;;14.70;4.82;;;7.50;99.90;;;;;;4960068;28;20110;-70
2023/04/16 02:22:36;;;;;;;5.95;4.00;;;7.50;99.90;;;;;;4958922;28;20114;-70
2023/04/16 02:25:02;;;;;;;9.10;4.03;;;7.50;99.90;;;;;;4959972;28;20030;-71
2023/04/16 02:27:28;;;;;;;8.02;4.78;;;7.50;99.90;;;;;;4959382;28;20024;-70
2023/04/16 02:29:53;;;;;;;6.53;4.20;;;7.50;99.90;;;;;;4959924;28;20023;-69
2023/04/16 02:32:19;;;;;;;13.93;4.20;;;7.40;99.90;;;;;;4959920;29;20031;-71
2023/04/16 02:34:45;;;;;;;12.88;4.20;;;7.40;99.90;;;;;;4959788;28;20031;-70
2023/04/16 02:37:10;;;;;;;6.93;3.70;;;7.40;99.90;;;;;;4959924;28;20031;-70
2023/04/16 02:39:36;;;;;;;13.20;4.05;;;7.40;99.90;;;;;;4959715;28;20083;-70
2023/04/16 02:42:02;;;;;;;9.75;4.00;;;7.40;99.90;;;;;;4959662;28;20039;-70
2023/04/16 02:44:27;;;;;;;10.27;3.65;;;7.40;99.90;;;;;;4959614;28;20047;-70
2023/04/16 02:46:53;;;;;;;13.07;4.28;;;7.40;99.90;;;;;;4959639;29;20050;-70
2023/04/16 02:49:19;;;;;;;9.98;3.80;;;7.40;99.90;;;;;;4959360;28;20381;-70
2023/04/16 02:51:44;;;;;;;10.77;3.90;;;7.40;99.90;;;;;;4959608;29;20094;-70
2023/04/16 02:54:10;;;;;;;7.70;4.25;;;7.40;99.90;;;;;;4959602;29;20078;-70
2023/04/16 02:56:35;;;;;;;20.42;4.95;;;7.30;99.90;;;;;;4959393;28;20027;-70
2023/04/16 02:59:01;;;;;;;10.50;3.90;;;7.30;99.90;;;;;;4959444;28;20041;-70
2023/04/16 03:01:27;;;;;;;10.70;4.70;;;7.30;99.90;;;;;;4957418;28;20058;-70
2023/04/16 03:03:53;;;;;;;8.77;4.07;;;7.30;99.90;;;;;;4957823;28;20023;-70
2023/04/16 03:06:18;;;;;;;9.75;4.43;;;7.30;99.90;;;;;;4958233;29;20523;-70
2023/04/16 03:08:44;;;;;;;7.22;4.80;;;7.30;99.90;;;;;;4959431;28;20020;-70
2023/04/16 03:11:10;;;;;;;7.68;3.78;;;7.30;99.90;;;;;;4958982;28;20031;-70
2023/04/16 03:13:35;;;;;;;12.55;3.92;;;7.40;99.90;;;;;;4959169;29;20512;-70
2023/04/16 03:16:01;;;;;;;9.30;4.28;;;7.40;99.90;;;;;;4957678;29;20376;-70
2023/04/16 03:18:27;;;;;;;14.30;3.88;;;7.40;99.90;;;;;;4959081;28;20023;-70
2023/04/16 03:20:53;;;;;;;10.70;3.75;;;7.40;99.90;;;;;;4957576;28;20051;-70
2023/04/16 03:23:19;;;;;;;9.75;4.20;;;7.30;99.90;;;;;;4959159;29;20027;-70
2023/04/16 03:25:46;;;;;;;10.75;4.47;;;7.40;99.90;;;;;;4957985;28;20034;-70
2023/04/16 03:28:13;;;;;;;20.00;4.60;;;7.30;99.90;;;;;;4958915;28;20030;-70
2023/04/16 03:30:38;;;;;;;8.25;3.80;;;7.30;99.90;;;;;;4958585;28;20033;-70
2023/04/16 03:33:04;;;;;;;7.97;4.35;;;7.30;99.90;;;;;;4958895;28;20027;-70
2023/04/16 03:35:30;;;;;;;11.23;4.35;;;7.30;99.90;;;;;;4957381;28;20031;-70
2023/04/16 03:37:55;;;;;;;17.63;4.32;;;7.30;99.90;;;;;;4957976;28;20495;-70
2023/04/16 03:40:21;;;;;;;9.05;3.92;;;7.30;99.90;;;;;;4958799;29;20094;-70
2023/04/16 03:42:47;;;;;;;9.00;3.97;;;7.30;99.90;;;;;;4957267;28;20090;-70
2023/04/16 03:45:13;;;;;;;7.40;3.88;;;7.40;99.90;;;;;;4958545;29;20488;-71
2023/04/16 03:47:39;;;;;;;11.07;4.72;;;7.30;99.90;;;;;;4958808;28;20031;-70
2023/04/16 03:50:05;;;;;;;18.17;6.68;;;7.30;99.90;;;;;;4958722;29;20031;-70
2023/04/16 03:52:31;;;;;;;11.60;4.57;;;7.30;99.90;;;;;;4958742;29;20388;-70
2023/04/16 03:54:56;;;;;;;10.23;4.55;;;7.30;99.90;;;;;;4959102;29;20027;-70
2023/04/16 03:57:22;;;;;;;13.30;4.03;;;7.30;99.90;;;;;;4958695;29;20027;-70
2023/04/16 03:59:48;;;;;;;8.70;4.53;;;7.30;99.90;;;;;;4956597;28;20030;-70
2023/04/16 04:02:13;;;;;;;11.85;4.45;;;7.30;99.90;;;;;;4956978;28;20023;-71
2023/04/16 04:04:39;;;;;;;8.48;4.50;;;7.30;99.90;;;;;;4958642;29;20031;-70
2023/04/16 04:07:05;;;;;;;5.75;4.07;;;7.30;99.90;;;;;;4958428;28;20015;-71
2023/04/16 04:09:31;;;;;;;13.15;4.57;;;7.20;99.90;;;;;;4958465;28;20888;-70
2023/04/16 04:11:56;;;;;;;9.13;4.38;;;7.20;99.90;;;;;;4958436;29;20023;-70
2023/04/16 04:14:22;;;;;;;7.03;3.92;;;7.20;99.90;;;;;;4958615;28;20431;-71
2023/04/16 04:16:47;;;;;;;6.00;3.97;;;7.20;99.90;;;;;;4960523;28;20535;-70
2023/04/16 04:19:13;;;;;;;15.35;5.40;;;7.20;99.90;;;;;;4962190;29;20023;-70
2023/04/16 04:21:39;;;;;;;15.70;5.53;;;7.10;99.90;;;;;;4962189;28;20047;-70
2023/04/16 04:24:04;;;;;;;11.35;4.68;;;7.10;99.90;;;;;;4962270;28;20034;-70
2023/04/16 04:26:30;;;;;;;14.35;5.00;;;7.00;99.90;;;;;;4962251;28;20026;-70
2023/04/16 04:28:56;;;;;;;6.68;3.97;;;7.00;99.90;;;;;;4960883;28;20028;-70
2023/04/16 04:31:21;;;;;;;12.30;4.40;;;7.00;99.90;;;;;;4961927;28;20035;-70
2023/04/16 04:33:47;;;;;;;11.15;4.40;;;7.00;99.90;;;;;;4962111;28;20036;-70
2023/04/16 04:36:13;;;;;;;9.73;4.63;;;7.00;99.90;;;;;;4962064;28;20510;-70
2023/04/16 04:38:38;;;;;;;12.52;4.32;;;7.00;99.90;;;;;;4962204;29;20094;-70
2023/04/16 04:41:04;;;;;;;8.77;3.80;;;6.90;99.90;;;;;;4961817;28;20030;-70
2023/04/16 04:43:30;;;;;;;10.57;4.57;;;6.90;99.90;;;;;;4961947;28;20033;-70
2023/04/16 04:45:55;;;;;;;12.65;5.53;;;6.90;99.90;;;;;;4961631;28;20016;-70
2023/04/16 04:48:25;;;;;;;8.48;4.20;;;6.90;99.90;;;;;;4961702;29;20027;-71
2023/04/16 04:50:51;;;;;;;14.20;5.10;;;6.90;99.90;;;;;;4961658;28;20011;-70
2023/04/16 04:53:17;;;;;;;9.98;4.10;;;6.90;99.90;;;;;;4961530;28;20031;-70
2023/04/16 04:55:42;;;;;;;11.18;4.47;;;6.90;99.90;;;;;;4961654;28;20027;-71
2023/04/16 04:58:08;;;;;;;13.23;4.72;;;6.90;99.90;;;;;;4961613;28;20023;-71
2023/04/16 05:00:35;;;;;;;10.25;4.82;;;6.90;99.90;;;;;;4961268;28;20042;-71
2023/04/16 05:03:02;;;;;;;11.00;4.50;;;6.90;99.90;;;;;;4961038;28;20045;-71
2023/04/16 05:05:28;;;;;;;7.68;4.65;;;6.90;99.90;;;;;;4961533;28;20484;-71
2023/04/16 05:07:53;;;;;;;10.48;4.75;;;6.90;99.90;;;;;;4960037;28;20031;-71
2023/04/16 05:10:19;;;;;;;13.50;5.03;;;6.90;99.90;;;;;;4961375;28;20019;-71
2023/04/16 05:12:47;;;;;;;16.75;6.80;;;6.80;99.90;;;;;;4960142;29;20035;-71
2023/04/16 05:15:13;;;;;;;13.48;5.85;;;6.80;99.90;;;;;;4960981;28;20050;-71
2023/04/16 05:17:39;;;;;;;13.85;5.18;;;6.80;99.90;;;;;;4961344;28;20532;-70
2023/04/16 05:20:05;;;;;;;6.10;4.35;;;6.80;99.90;;;;;;4961355;28;20050;-71
2023/04/16 05:22:31;;;;;;;14.35;4.82;;;6.80;99.90;;;;;;4960853;29;20055;-70
2023/04/16 05:24:57;;;;;;;12.73;4.40;;;6.80;99.90;;;;;;4961002;29;20025;-70
2023/04/16 05:27:22;;;;;;;12.70;4.55;;;6.90;99.90;;;;;;4957774;28;20059;-70
2023/04/16 05:29:48;;;;;;;6.35;4.25;;;6.90;99.90;;;;;;4960556;28;20051;-70
2023/04/16 05:32:14;;;;;;;14.23;4.07;;;7.00;99.90;;;;;;4960070;28;20043;-70
2023/04/16 05:34:39;;;;;;;7.70;4.45;;;7.00;99.90;;;;;;4956439;29;20027;-70
2023/04/16 05:37:05;;;;;;;10.15;5.75;;;7.10;99.90;;;;;;4960817;28;20086;-70
2023/04/16 05:39:31;;;;;;;11.52;5.18;;;7.20;99.90;;;;;;4960809;28;20035;-71
2023/04/16 05:41:56;;;;;;;6.80;3.90;;;7.20;99.90;;;;;;4959484;29;20444;-71
2023/04/16 05:44:22;;;;;;;15.98;4.68;;;7.30;99.90;;;;;;4960646;28;20030;-71
2023/04/16 05:46:48;;;;;;;15.05;4.97;;;7.30;99.90;;;;;;4959628;29;20489;-71
2023/04/16 05:49:14;;;;;;;8.05;4.13;;;7.40;99.90;;;;;;4960776;28;20051;-71
2023/04/16 05:51:40;;;;;;;10.15;4.00;;;7.50;99.90;;;;;;4960365;28;20023;-70
2023/04/16 05:54:05;;;;;;;10.55;4.60;;;7.50;99.90;;;;;;4959265;28;20400;-70
2023/04/16 05:56:31;;;;;;;9.40;4.35;;;7.60;99.90;;;;;;4960480;29;20023;-71
2023/04/16 05:58:57;;;;;;;13.55;5.18;;;7.70;99.90;;;;;;4960644;28;20078;-71
2023/04/16 06:01:22;;;;;;;11.98;4.55;;;7.80;99.90;;;;;;4959482;29;20035;-70
2023/04/16 06:03:48;;;;;;;10.02;4.72;;;7.80;99.90;;;;;;4959078;28;20081;-71
2023/04/16 06:06:14;;;;;;;11.75;4.90;;;7.90;99.90;;;;;;4960107;29;20484;-70
2023/04/16 06:08:39;;;;;;;7.80;3.83;;;8.00;99.90;;;;;;4958756;29;20026;-71
2023/04/16 06:11:05;;;;;;;14.35;4.63;;;8.00;99.90;;;;;;4960219;28;20042;-71
2023/04/16 06:13:31;;;;;;;8.35;3.90;;;8.10;99.90;;;;;;4960061;28;20030;-72
2023/04/16 06:15:56;;;;;;;10.05;4.82;;;8.10;99.90;;;;;;4958553;28;20031;-71
2023/04/16 06:18:22;;;;;;;5.88;3.78;;;8.20;99.90;;;;;;4959368;28;20051;-70
2023/04/16 06:20:48;;;;;;;14.50;3.97;;;8.30;99.90;;;;;;4959948;28;20571;-71
2023/04/16 06:23:14;;;;;;;11.98;4.18;;;8.40;99.90;;;;;;4959894;28;20027;-71
2023/04/16 06:25:40;;;;;;;9.77;4.30;;;8.40;99.90;;;;;;4960111;28;20023;-71
2023/04/16 06:28:06;;;;;;;12.23;4.15;;;8.50;99.90;;;;;;4959340;28;20156;-71
2023/04/16 06:30:32;;;;;;;8.25;4.20;;;8.60;99.90;;;;;;4959716;28;20023;-71
2023/04/16 06:32:57;;;;;;;13.88;5.45;;;8.70;99.90;;;;;;4958601;28;20031;-70
2023/04/16 06:35:23;;;;;;;13.38;5.28;;;8.70;99.90;;;;;;4959831;29;20508;-70
2023/04/16 06:37:49;;;;;;;15.45;6.03;;;8.80;99.90;;;;;;4958128;28;20031;-72
2023/04/16 06:40:15;;;;;;;12.25;4.30;;;8.80;99.90;;;;;;4959513;28;20102;-71
2023/04/16 06:42:41;;;;;;;12.68;5.10;;;8.90;99.90;;;;;;4959489;28;20031;-71
2023/04/16 06:45:08;;;;;;;9.98;4.32;;;9.00;99.90;;;;;;4959499;29;20407;-73
2023/04/16 06:47:33;;;;;;;6.43;4.03;;;9.00;99.90;;;;;;4956004;28;20075;-71
2023/04/16 06:49:59;;;;;;;10.43;4.57;;;9.10;99.90;;;;;;4957495;28;20023;-70
2023/04/16 06:52:25;;;;;;;11.60;3.47;;;9.10;99.90;;;;;;4959344;28;20035;-70
2023/04/16 06:54:50;;;;;;;6.75;4.25;;;9.20;99.90;;;;;;4959300;28;20025;-70
2023/04/16 06:57:16;;;;;;;8.20;3.50;;;9.20;99.90;;;;;;4959669;28;20062;-71
2023/04/16 06:59:42;;;;;;;6.82;3.40;;;9.30;99.90;;;;;;4959180;28;20038;-71
2023/04/16 07:02:10;;;;;;;5.32;3.47;;;9.40;99.90;;;;;;4959233;28;20023;-71
2023/04/16 07:04:36;;;;;;;10.70;4.43;;;9.50;99.90;;;;;;4957765;28;20096;-70
2023/04/16 07:07:02;;;;;;;14.57;4.53;;;9.60;99.90;;;;;;4959479;28;20024;-70
2023/04/16 07:09:27;;;;;;;11.52;3.88;;;9.60;99.90;;;;;;4959150;28;20055;-70
2023/04/16 07:11:53;;;;;;;11.35;4.10;;;9.70;99.90;;;;;;4959431;28;20028;-70
2023/04/16 07:14:19;;;;;;;11.85;4.00;;;9.80;99.90;;;;;;4959129;28;20570;-70
2023/04/16 07:16:44;;;;;;;10.18;4.35;;;9.90;99.90;;;;;;4959096;28;20139;-70
2023/04/16 07:19:10;;;;;;;13.20;4.15;;;9.90;99.90;;;;;;4957563;29;20081;-70
2023/04/16 07:21:36;;;;;;;7.32;3.70;;;10.00;99.90;;;;;;4959068;28;20098;-71
2023/04/16 07:24:02;;;;;;;10.13;3.78;;;10.10;99.90;;;;;;4958195;29;20035;-70
2023/04/16 07:26:27;;;;;;;9.57;4.25;;;10.10;99.90;;;;;;4959182;29;20118;-70
2023/04/16 07:28:53;;;;;;;11.98;3.92;;;10.10;99.90;;;;;;4957592;28;20029;-71
2023/04/16 07:31:19;;;;;;;13.02;5.72;;;10.20;99.90;;;;;;4958949;29;20377;-71
2023/04/16 07:33:44;;;;;;;10.52;4.38;;;10.30;99.90;;;;;;4957678;29;20116;-71
2023/04/16 07:36:10;;;;;;;7.47;3.65;;;10.40;99.90;;;;;;4959199;28;20024;-70
2023/04/16 07:38:36;;;;;;;4.35;2.65;;;10.60;99.90;;;;;;4958991;28;20114;-71
2023/04/16 07:41:01;;;;;;;10.98;3.85;;;10.70;99.90;;;;;;4958926;29;20154;-70
2023/04/16 07:43:27;;;;;;;9.45;3.90;;;10.80;99.90;;;;;;4958844;28;20070;-69
2023/04/16 07:45:53;;;;;;;7.53;3.83;;;10.80;99.90;;;;;;4958670;28;20399;-70
2023/04/16 07:48:20;;;;;;;15.98;5.85;;;10.90;99.90;;;;;;4957222;28;20027;-71
2023/04/16 07:50:45;;;;;;;8.30;3.42;;;10.90;99.90;;;;;;4961190;28;20086;-70
2023/04/16 07:53:11;;;;;;;18.08;4.10;;;11.00;99.90;;;;;;4963631;28;20031;-70
2023/04/16 07:55:37;;;;;;;4.65;2.80;;;11.00;99.90;;;;;;4963959;28;20042;-72
2023/04/16 07:58:02;;;;;;;12.00;4.60;;;11.10;99.90;;;;;;4965053;28;20047;-71
2023/04/16 08:00:28;;;;;;;8.35;3.28;;;11.10;99.90;;;;;;4964799;28;20031;-70
2023/04/16 08:02:54;;;;;;;8.38;3.30;;;11.20;99.90;;;;;;4965068;28;20079;-70
2023/04/16 08:05:20;;;;;;;16.83;5.25;;;11.20;99.90;;;;;;4963519;28;20519;-70
2023/04/16 08:07:46;;;;;;;7.57;2.72;;;11.30;99.90;;;;;;4965160;28;20027;-70
2023/04/16 08:10:11;;;;;;;11.13;3.10;;;11.40;99.90;;;;;;4964850;28;20047;-71
2023/04/16 08:12:37;;;;;;;7.57;3.38;;;11.50;99.90;;;;;;4965025;28;20023;-72
2023/04/16 08:15:04;;;;;;;7.90;3.60;;;11.50;99.90;;;;;;4964767;28;20034;-70
2023/04/16 08:17:29;;;;;;;3.40;2.17;;;11.60;99.90;;;;;;4963586;28;20042;-71
2023/04/16 08:19:55;;;;;;;11.85;4.45;;;11.60;99.90;;;;;;4964871;29;20817;-72
2023/04/16 08:22:21;;;;;;;4.88;2.72;;;11.70;99.90;;;;;;4964801;28;20047;-70
2023/04/16 08:24:47;;;;;;;5.95;3.00;;;11.70;99.90;;;;;;4963588;28;20026;-71
2023/04/16 08:27:12;;;;;;;10.48;3.60;;;11.80;99.90;;;;;;4964796;28;20023;-71
2023/04/16 08:29:38;;;;;;;8.45;3.00;;;11.80;99.90;;;;;;4964773;28;20452;-71
2023/04/16 08:32:04;;;;;;;9.98;2.95;;;12.00;99.90;;;;;;4963326;28;20102;-71
2023/04/16 08:34:29;;;;;;;11.30;3.67;;;12.00;99.90;;;;;;4963388;29;20035;-71
2023/04/16 08:36:55;;;;;;;15.93;2.83;;;12.10;99.90;;;;;;4963531;28;20035;-70
2023/04/16 08:39:20;;;;;;;7.57;3.25;;;12.10;99.90;;;;;;4963434;28;20216;-71
2023/04/16 08:41:46;;;;;;;6.40;2.92;;;12.10;99.90;;;;;;4964641;29;20034;-70
2023/04/16 08:44:24;;;;;;;8.20;2.97;;;12.20;99.90;;;;;;4963447;28;20028;-71
2023/04/16 08:47:01;;;;;;;6.75;2.90;;;12.20;99.90;;;;;;4964526;28;20019;-71
2023/04/16 08:49:27;;;;;;;6.10;3.08;;;12.30;99.90;;;;;;4963217;28;20415;-71
2023/04/16 08:51:55;;;;;;;8.95;3.40;;;12.40;99.90;;;;;;4964791;28;20109;-71
2023/04/16 08:54:42;;;;;;;8.18;2.80;;;12.40;99.90;;;;;;4964540;28;20110;-71
2023/04/16 08:57:10;;;;;;;9.05;3.20;;;12.50;99.90;;;;;;4963223;29;20027;-71
2023/04/16 08:59:37;;;;;;;7.55;3.20;;;12.60;99.90;;;;;;4964555;28;20027;-71
2023/04/16 09:02:05;;;;;;;3.03;2.55;;;12.60;99.90;;;;;;4962650;28;20051;-70
2023/04/16 09:04:31;;;;;;;11.27;4.72;;;12.80;99.90;;;;;;4961332;28;20117;-71
2023/04/16 09:06:58;;;;;;;9.60;3.38;;;13.00;99.90;;;;;;4961622;28;20074;-70
2023/04/16 09:09:25;;;;;;;3.80;2.78;;;13.10;99.90;;;;;;4961512;28;20030;-70
2023/04/16 09:11:52;;;;;;;4.18;2.35;;;13.20;99.90;;;;;;4960389;28;20030;-71
2023/04/16 09:14:19;;;;;;;6.25;3.03;;;13.30;99.90;;;;;;4960098;28;20031;-71
2023/04/16 09:16:46;;;;;;;5.22;2.35;;;13.50;99.90;;;;;;4959798;28;20031;-71
2023/04/16 09:19:13;;;;;;;6.63;2.40;;;13.60;99.90;;;;;;4959727;28;20042;-71
2023/04/16 09:21:40;;;;;;;6.88;3.00;;;13.50;99.90;;;;;;4961134;28;20044;-72
2023/04/16 09:24:08;;;;;;;3.42;2.50;;;13.60;99.90;;;;;;4961019;28;20159;-73
2023/04/16 09:26:34;;;;;;;6.18;2.60;;;13.50;99.90;;;;;;4961326;29;20012;-70
2023/04/16 09:29:00;;;;;;;6.40;3.58;;;13.20;99.90;;;;;;4960993;28;20391;-70
2023/04/16 09:31:26;;;;;;;10.23;2.97;;;13.00;99.90;;;;;;4960119;28;20028;-70
2023/04/16 09:34:10;;;;;;;14.35;3.30;;;13.00;99.90;;;;;;4959704;29;20428;-72
2023/04/16 09:36:36;;;;;;;6.75;2.90;;;13.00;99.90;;;;;;4960765;28;20066;-71
2023/04/16 09:39:02;;;;;;;4.78;2.55;;;13.00;99.90;;;;;;4961102;28;20035;-71
2023/04/16 09:41:30;;;;;;;12.95;2.67;;;13.00;99.90;;;;;;4959472;28;20110;-71
2023/04/16 09:43:58;;;;;;;6.90;2.70;;;13.00;99.90;;;;;;4961096;28;20019;-72
2023/04/16 09:46:41;;;;;;;6.75;2.35;;;13.20;99.90;;;;;;4960835;28;20415;-71
2023/04/16 09:49:14;;;;;;;3.83;2.67;;;13.20;99.90;;;;;;4960658;28;20083;-71
2023/04/16 09:51:46;;;;;;;5.35;2.97;;;13.30;99.90;;;;;;4958063;28;20030;-70
2023/04/16 09:54:12;;;;;;;4.88;2.70;;;13.20;99.90;;;;;;4960578;28;20092;-70
2023/04/16 09:56:42;;;;;;;4.50;2.50;;;13.20;99.90;;;;;;4960658;28;20050;-72
2023/04/16 09:59:19;;;;;;;5.25;2.63;;;13.20;99.90;;;;;;4959253;28;20081;-71
2023/04/16 10:01:45;;;;;;;8.13;3.55;;;13.30;99.90;;;;;;4960740;28;20031;-71
2023/04/16 10:04:11;;;;;;;6.95;2.75;;;13.20;99.90;;;;;;4960243;28;20261;-70
2023/04/16 10:06:37;;;;;;;11.52;3.58;;;13.20;99.90;;;;;;4959164;28;20023;-71
2023/04/16 10:09:07;;;;;;;9.52;3.25;;;13.20;99.90;;;;;;4959040;28;20055;-70
2023/04/16 10:11:33;;;;;;;14.17;3.53;;;13.30;99.90;;;;;;4960472;28;20019;-70
2023/04/16 10:14:00;;;;;;;11.88;3.13;;;13.30;99.90;;;;;;4959913;28;20322;-71
2023/04/16 10:16:26;;;;;;;10.27;2.90;;;13.40;99.90;;;;;;4958664;28;20034;-71
2023/04/16 10:18:53;;;;;;;8.55;3.00;;;13.60;99.90;;;;;;4960290;28;20035;-71
2023/04/16 10:21:18;;;;;;;13.00;3.85;;;13.60;99.90;;;;;;4959953;28;20090;-71
2023/04/16 10:23:45;;;;;;;7.07;3.05;;;13.50;99.90;;;;;;4960096;28;20027;-71
2023/04/16 10:26:10;;;;;;;6.60;2.83;;;13.50;99.90;;;;;;4958746;28;20113;-71
2023/04/16 10:28:36;;;;;;;8.70;2.90;;;13.50;99.90;;;;;;4960203;29;20027;-71
2023/04/16 10:31:08;;;;;;;9.27;2.92;;;13.50;99.90;;;;;;4959921;28;20027;-71
2023/04/16 10:33:36;;;;;;;3.25;2.55;;;13.50;99.90;;;;;;4958462;28;20046;-71
2023/04/16 10:36:21;;;;;;;4.25;2.20;;;13.40;99.90;;;;;;4958652;29;20544;-71
2023/04/16 10:38:49;;;;;;;5.70;2.60;;;13.30;99.90;;;;;;4958424;28;20028;-71
2023/04/16 10:41:15;;;;;;;5.43;3.17;;;13.20;99.90;;;;;;4959675;28;20078;-70
2023/04/16 10:43:43;;;;;;;7.25;3.00;;;13.30;99.90;;;;;;4958468;28;20082;-70
2023/04/16 10:46:23;;;;;;;6.97;3.22;;;13.60;99.90;;;;;;4958365;28;20027;-71
2023/04/16 10:48:52;;;;;;;3.45;2.20;;;13.90;99.90;;;;;;4959552;29;20019;-72
2023/04/16 10:51:32;;;;;;;9.48;2.88;;;14.00;99.90;;;;;;4958473;28;20037;-72
2023/04/16 10:54:07;;;;;;;5.82;2.78;;;14.20;99.90;;;;;;4958310;28;20026;-71
2023/04/16 10:56:34;;;;;;;8.98;3.38;;;14.50;99.90;;;;;;4959300;28;20094;-72
2023/04/16 10:59:00;;;;;;;5.32;2.60;;;14.50;99.90;;;;;;4959504;28;20474;-71
2023/04/16 11:01:36;;;;;;;5.28;2.55;;;14.20;99.90;;;;;;4958878;28;20098;-71
2023/04/16 11:04:20;;;;;;;4.15;2.17;;;14.10;99.90;;;;;;4958029;29;20028;-71
2023/04/16 11:07:06;;;;;;;4.22;2.42;;;14.20;99.90;;;;;;4959347;28;20024;-72
2023/04/16 11:09:47;;;;;;;4.55;2.30;;;14.40;99.90;;;;;;4957924;29;20043;-72
2023/04/16 11:12:13;;;;;;;;;;;14.60;99.90;;;;;;4958467;28;20067;-71
2023/04/16 11:14:45;;;;;;;4.38;2.58;;;14.50;99.90;;;;;;4959163;28;19957;-72
2023/04/16 11:17:11;;;;;;;5.45;2.85;;;14.40;99.90;;;;;;4957849;29;20043;-71
2023/04/16 11:19:37;;;;;;;9.75;2.75;;;14.50;99.90;;;;;;4957796;28;20385;-73
2023/04/16 11:22:03;;;;;;;7.07;2.60;;;14.80;99.90;;;;;;4958808;28;20047;-71
2023/04/16 11:24:30;;;;;;;3.95;2.17;;;15.00;99.90;;;;;;4958029;28;20110;-71
2023/04/16 11:26:56;;;;;;;3.38;2.30;;;15.10;99.90;;;;;;4958384;29;20098;-72
2023/04/16 11:29:22;;;;;;;4.93;2.10;;;15.10;99.90;;;;;;4958953;29;20109;-71
2023/04/16 11:31:54;;;;;;;5.32;2.28;;;15.00;99.90;;;;;;4958835;28;20031;-72
2023/04/16 11:34:20;;;;;;;10.25;2.25;;;15.10;99.90;;;;;;4958791;29;20027;-73
2023/04/16 11:36:48;;;;;;;5.03;2.42;;;15.30;99.90;;;;;;4958951;28;20110;-72
2023/04/16 11:39:13;;;;;;;3.25;1.80;;;15.30;99.90;;;;;;4957492;28;20086;-71
2023/04/16 11:41:43;;;;;;;10.63;2.83;;;15.30;99.90;;;;;;4957558;29;20027;-71
2023/04/16 11:44:26;;;;;;;6.85;2.33;;;15.40;99.90;;;;;;4958831;29;20023;-72
2023/04/16 11:46:53;;;;;;;6.22;2.33;;;15.70;99.90;;;;;;4957203;29;20440;-72
2023/04/16 11:49:31;;;;;;;6.70;2.50;;;15.60;99.90;;;;;;4958844;28;20028;-71
2023/04/16 11:51:57;;;;;;;9.90;2.85;;;15.20;99.90;;;;;;4958836;28;20127;-72
2023/04/16 11:54:24;;;;;;;4.68;2.53;;;15.10;99.90;;;;;;4958963;28;20027;-71
2023/04/16 11:56:52;;;;;;;5.78;2.10;;;15.10;99.90;;;;;;4957376;28;20027;-71
2023/04/16 11:59:21;;;;;;;5.07;2.92;;;15.40;99.90;;;;;;4957411;29;20119;-72
2023/04/16 12:01:52;;;;;;;5.50;2.58;;;15.50;99.90;;;;;;4957742;28;20050;-71
2023/04/16 12:04:19;;;;;;;11.05;3.28;;;15.50;99.90;;;;;;4957251;29;20122;-72
2023/04/16 12:07:13;;;;;;;5.10;2.10;;;15.50;99.90;;;;;;4958703;28;20082;-72
2023/04/16 12:09:41;;;;;;;4.32;2.33;;;15.60;99.90;;;;;;4949130;29;20023;-72
2023/04/16 12:12:26;;;;;;;6.43;2.13;;;15.70;99.90;;;;;;4958699;29;20031;-72
2023/04/16 12:14:53;;;;;;;10.95;3.03;;;15.70;99.90;;;;;;4958246;28;20035;-72
2023/04/16 12:17:21;;;;;;;8.70;2.95;;;15.60;99.90;;;;;;4958582;28;20027;-72
2023/04/16 12:20:08;;;;;;;8.23;2.63;;;15.60;99.90;;;;;;4957148;28;20027;-72
2023/04/16 12:22:36;;;;;;;7.43;2.40;;;15.70;99.90;;;;;;4958340;28;20052;-72
2023/04/16 12:25:15;;;;;;;3.08;1.85;;;16.00;99.90;;;;;;4958495;28;20484;-73
2023/04/16 12:27:45;;;;;;;9.27;2.07;;;16.10;99.90;;;;;;4958636;28;20488;-72
2023/04/16 12:30:12;;;;;;;6.90;1.80;;;16.20;99.90;;;;;;4953639;29;20059;-71
2023/04/16 12:32:40;;;;;;;3.45;2.38;;;15.90;99.90;;;;;;4958832;28;20054;-72
2023/04/16 12:35:06;;;;;;;3.65;2.55;;;15.90;99.90;;;;;;4958511;28;20063;-72
2023/04/16 12:37:32;;;;;;;4.65;2.70;;;15.60;99.90;;;;;;4959180;28;20550;-72
2023/04/16 12:39:58;;;;;;;7.30;2.72;;;15.50;99.90;;;;;;4961952;29;20462;-71
2023/04/16 12:42:23;;;;;;;5.32;2.47;;;15.70;99.90;;;;;;4962239;29;20026;-71
2023/04/16 12:44:49;;;;;;;3.50;2.55;;;15.80;99.90;;;;;;4961521;29;20027;-71
2023/04/16 12:47:15;;;;;;;5.28;2.78;;;15.70;99.90;;;;;;4962058;29;20046;-71